sensor_id;sensor_type;location;lat;lon;timestamp;P1;P2;P0
54553;PMS5003;40450;55.848;-3.572;2023-04-10T00:00:15;10;9;
54553;PMS5003;40450;55.848;-3.572;2023-04-10T00:02:51;9;9;
54553;PMS5003;40450;55.848;-3.572;2023-04-10T00:05:16;17;13;
54553;PMS5003;40450;55.848;-3.572;2023-04-10T00:07:46;13;12;
54553;PMS5003;40450;55.848;-3.572;2023-04-10T00:10:17;13;12;
54553;PMS5003;40450;55.848;-3.572;2023-04-10T00:12:47;15;12;
54553;PMS5003;40450;55.848;-3.572;2023-04-10T00:15:17;13;11;
54553;PMS5003;40450;55.848;-3.572;2023-04-10T00:17:49;12;10;
54553;PMS5003;40450;55.848;-3.572;2023-04-10T00:22:48;12;10;
54553;PMS5003;40450;55.848;-3.572;2023-04-10T00:25:19;9;8;
54553;PMS5003;40450;55.848;-3.572;2023-04-10T00:27:49;8;8;
54553;PMS5003;40450;55.848;-3.572;2023-04-10T00:30:19;8;8;
54553;PMS5003;40450;55.848;-3.572;2023-04-10T00:32:49;10;9;
54553;PMS5003;40450;55.848;-3.572;2023-04-10T00:35:19;9;8;
54553;PMS5003;40450;55.848;-3.572;2023-04-10T00:37:50;9;8;
54553;PMS5003;40450;55.848;-3.572;2023-04-10T00:40:20;10;7;
54553;PMS5003;40450;55.848;-3.572;2023-04-10T00:42:55;12;12;
54553;PMS5003;40450;55.848;-3.572;2023-04-10T00:45:21;9;9;
54553;PMS5003;40450;55.848;-3.572;2023-04-10T00:47:51;14;13;
54553;PMS5003;40450;55.848;-3.572;2023-04-10T00:50:22;9;9;
54553;PMS5003;40450;55.848;-3.572;2023-04-10T00:52:52;10;7;
54553;PMS5003;40450;55.848;-3.572;2023-04-10T00:55:23;7;7;
54553;PMS5003;40450;55.848;-3.572;2023-04-10T00:57:53;8;7;
54553;PMS5003;40450;55.848;-3.572;2023-04-10T01:00:24;9;8;
54553;PMS5003;40450;55.848;-3.572;2023-04-10T01:02:54;7;6;
54553;PMS5003;40450;55.848;-3.572;2023-04-10T01:05:24;9;7;
54553;PMS5003;40450;55.848;-3.572;2023-04-10T01:07:58;7;7;
54553;PMS5003;40450;55.848;-3.572;2023-04-10T01:10:33;7;7;
54553;PMS5003;40450;55.848;-3.572;2023-04-10T01:12:57;7;7;
54553;PMS5003;40450;55.848;-3.572;2023-04-10T01:15:26;4;4;
54553;PMS5003;40450;55.848;-3.572;2023-04-10T01:17:57;10;7;
54553;PMS5003;40450;55.848;-3.572;2023-04-10T01:20:28;5;4;
54553;PMS5003;40450;55.848;-3.572;2023-04-10T01:25:33;5;3;
54553;PMS5003;40450;55.848;-3.572;2023-04-10T01:28:03;3;3;
54553;PMS5003;40450;55.848;-3.572;2023-04-10T01:30:28;3;3;
54553;PMS5003;40450;55.848;-3.572;2023-04-10T01:32:58;4;4;
54553;PMS5003;40450;55.848;-3.572;2023-04-10T01:35:29;4;4;
54553;PMS5003;40450;55.848;-3.572;2023-04-10T01:37:59;2;2;
54553;PMS5003;40450;55.848;-3.572;2023-04-10T01:40:29;3;3;
54553;PMS5003;40450;55.848;-3.572;2023-04-10T01:43:00;3;3;
54553;PMS5003;40450;55.848;-3.572;2023-04-10T01:45:30;2;2;
54553;PMS5003;40450;55.848;-3.572;2023-04-10T01:48:00;3;2;
54553;PMS5003;40450;55.848;-3.572;2023-04-10T01:50:31;2;2;
54553;PMS5003;40450;55.848;-3.572;2023-04-10T01:53:01;2;1;
54553;PMS5003;40450;55.848;-3.572;2023-04-10T01:55:32;1;1;
54553;PMS5003;40450;55.848;-3.572;2023-04-10T01:58:02;1;1;
54553;PMS5003;40450;55.848;-3.572;2023-04-10T02:00:36;2;0;
54553;PMS5003;40450;55.848;-3.572;2023-04-10T02:03:03;2;0;
54553;PMS5003;40450;55.848;-3.572;2023-04-10T02:05:35;1;1;
54553;PMS5003;40450;55.848;-3.572;2023-04-10T02:08:04;0;0;
54553;PMS5003;40450;55.848;-3.572;2023-04-10T02:10:35;0;0;
54553;PMS5003;40450;55.848;-3.572;2023-04-10T02:13:05;3;1;
54553;PMS5003;40450;55.848;-3.572;2023-04-10T02:15:35;1;1;
54553;PMS5003;40450;55.848;-3.572;2023-04-10T02:18:05;1;1;
54553;PMS5003;40450;55.848;-3.572;2023-04-10T02:20:36;0;0;
54553;PMS5003;40450;55.848;-3.572;2023-04-10T02:23:06;3;1;
54553;PMS5003;40450;55.848;-3.572;2023-04-10T02:25:42;0;0;
54553;PMS5003;40450;55.848;-3.572;2023-04-10T02:28:07;0;0;
54553;PMS5003;40450;55.848;-3.572;2023-04-10T02:30:37;1;1;
54553;PMS5003;40450;55.848;-3.572;2023-04-10T02:33:08;0;0;
54553;PMS5003;40450;55.848;-3.572;2023-04-10T02:35:38;1;0;
54553;PMS5003;40450;55.848;-3.572;2023-04-10T02:38:09;1;1;
54553;PMS5003;40450;55.848;-3.572;2023-04-10T02:40:39;0;0;
54553;PMS5003;40450;55.848;-3.572;2023-04-10T02:43:09;1;1;
54553;PMS5003;40450;55.848;-3.572;2023-04-10T02:45:40;0;0;
54553;PMS5003;40450;55.848;-3.572;2023-04-10T02:48:10;1;1;
54553;PMS5003;40450;55.848;-3.572;2023-04-10T02:50:40;1;1;
54553;PMS5003;40450;55.848;-3.572;2023-04-10T02:53:12;2;2;
54553;PMS5003;40450;55.848;-3.572;2023-04-10T02:55:41;1;1;
54553;PMS5003;40450;55.848;-3.572;2023-04-10T02:58:12;1;1;
54553;PMS5003;40450;55.848;-3.572;2023-04-10T03:00:46;1;1;
54553;PMS5003;40450;55.848;-3.572;2023-04-10T03:03:13;1;1;
54553;PMS5003;40450;55.848;-3.572;2023-04-10T03:05:43;0;0;
54553;PMS5003;40450;55.848;-3.572;2023-04-10T03:08:13;1;1;
54553;PMS5003;40450;55.848;-3.572;2023-04-10T03:10:44;2;2;
54553;PMS5003;40450;55.848;-3.572;2023-04-10T03:13:14;1;1;
54553;PMS5003;40450;55.848;-3.572;2023-04-10T03:15:45;0;0;
54553;PMS5003;40450;55.848;-3.572;2023-04-10T03:18:15;1;1;
54553;PMS5003;40450;55.848;-3.572;2023-04-10T03:20:45;0;0;
54553;PMS5003;40450;55.848;-3.572;2023-04-10T03:23:16;1;1;
54553;PMS5003;40450;55.848;-3.572;2023-04-10T03:25:48;1;1;
54553;PMS5003;40450;55.848;-3.572;2023-04-10T03:28:22;2;2;
54553;PMS5003;40450;55.848;-3.572;2023-04-10T03:30:47;1;1;
54553;PMS5003;40450;55.848;-3.572;2023-04-10T03:33:17;2;2;
54553;PMS5003;40450;55.848;-3.572;2023-04-10T03:35:48;0;0;
54553;PMS5003;40450;55.848;-3.572;2023-04-10T03:38:18;2;2;
54553;PMS5003;40450;55.848;-3.572;2023-04-10T03:40:48;2;1;
54553;PMS5003;40450;55.848;-3.572;2023-04-10T03:43:19;1;1;
54553;PMS5003;40450;55.848;-3.572;2023-04-10T03:45:49;1;1;
54553;PMS5003;40450;55.848;-3.572;2023-04-10T03:48:20;0;0;
54553;PMS5003;40450;55.848;-3.572;2023-04-10T03:50:50;0;0;
54553;PMS5003;40450;55.848;-3.572;2023-04-10T03:53:20;0;0;
54553;PMS5003;40450;55.848;-3.572;2023-04-10T03:55:51;0;0;
54553;PMS5003;40450;55.848;-3.572;2023-04-10T03:58:21;0;0;
54553;PMS5003;40450;55.848;-3.572;2023-04-10T04:00:52;0;0;
54553;PMS5003;40450;55.848;-3.572;2023-04-10T04:03:22;0;0;
54553;PMS5003;40450;55.848;-3.572;2023-04-10T04:05:53;0;0;
54553;PMS5003;40450;55.848;-3.572;2023-04-10T04:08:23;0;0;
54553;PMS5003;40450;55.848;-3.572;2023-04-10T04:10:53;0;0;
54553;PMS5003;40450;55.848;-3.572;2023-04-10T04:13:24;0;0;
54553;PMS5003;40450;55.848;-3.572;2023-04-10T04:15:54;0;0;
54553;PMS5003;40450;55.848;-3.572;2023-04-10T04:18:24;0;0;
54553;PMS5003;40450;55.848;-3.572;2023-04-10T04:20:55;0;0;
54553;PMS5003;40450;55.848;-3.572;2023-04-10T04:23:25;1;1;
54553;PMS5003;40450;55.848;-3.572;2023-04-10T04:25:56;0;0;
54553;PMS5003;40450;55.848;-3.572;2023-04-10T04:28:26;0;0;
54553;PMS5003;40450;55.848;-3.572;2023-04-10T04:30:57;0;0;
54553;PMS5003;40450;55.848;-3.572;2023-04-10T04:33:27;0;0;
54553;PMS5003;40450;55.848;-3.572;2023-04-10T04:35:57;0;0;
54553;PMS5003;40450;55.848;-3.572;2023-04-10T04:38:28;0;0;
54553;PMS5003;40450;55.848;-3.572;2023-04-10T04:40:58;0;0;
54553;PMS5003;40450;55.848;-3.572;2023-04-10T04:43:29;0;0;
54553;PMS5003;40450;55.848;-3.572;2023-04-10T04:45:59;0;0;
54553;PMS5003;40450;55.848;-3.572;2023-04-10T04:48:29;0;0;
54553;PMS5003;40450;55.848;-3.572;2023-04-10T04:51:00;0;0;
54553;PMS5003;40450;55.848;-3.572;2023-04-10T04:53:30;1;1;
54553;PMS5003;40450;55.848;-3.572;2023-04-10T04:56:00;0;0;
54553;PMS5003;40450;55.848;-3.572;2023-04-10T04:58:31;1;1;
54553;PMS5003;40450;55.848;-3.572;2023-04-10T05:01:01;0;0;
54553;PMS5003;40450;55.848;-3.572;2023-04-10T05:03:32;0;0;
54553;PMS5003;40450;55.848;-3.572;2023-04-10T05:06:02;2;0;
54553;PMS5003;40450;55.848;-3.572;2023-04-10T05:08:32;0;0;
54553;PMS5003;40450;55.848;-3.572;2023-04-10T05:11:03;1;1;
54553;PMS5003;40450;55.848;-3.572;2023-04-10T05:13:33;1;1;
54553;PMS5003;40450;55.848;-3.572;2023-04-10T05:16:04;1;1;
54553;PMS5003;40450;55.848;-3.572;2023-04-10T05:18:34;1;1;
54553;PMS5003;40450;55.848;-3.572;2023-04-10T05:21:04;0;0;
54553;PMS5003;40450;55.848;-3.572;2023-04-10T05:23:35;2;1;
54553;PMS5003;40450;55.848;-3.572;2023-04-10T05:26:05;0;0;
54553;PMS5003;40450;55.848;-3.572;2023-04-10T05:28:35;2;2;
54553;PMS5003;40450;55.848;-3.572;2023-04-10T05:31:06;1;1;
54553;PMS5003;40450;55.848;-3.572;2023-04-10T05:33:36;1;1;
54553;PMS5003;40450;55.848;-3.572;2023-04-10T05:36:07;3;3;
54553;PMS5003;40450;55.848;-3.572;2023-04-10T05:38:37;2;2;
54553;PMS5003;40450;55.848;-3.572;2023-04-10T05:41:08;4;2;
54553;PMS5003;40450;55.848;-3.572;2023-04-10T05:43:38;2;1;
54553;PMS5003;40450;55.848;-3.572;2023-04-10T05:46:08;2;1;
54553;PMS5003;40450;55.848;-3.572;2023-04-10T05:48:38;3;2;
54553;PMS5003;40450;55.848;-3.572;2023-04-10T05:51:09;1;1;
54553;PMS5003;40450;55.848;-3.572;2023-04-10T05:53:39;2;2;
54553;PMS5003;40450;55.848;-3.572;2023-04-10T05:56:10;4;2;
54553;PMS5003;40450;55.848;-3.572;2023-04-10T05:58:41;2;2;
54553;PMS5003;40450;55.848;-3.572;2023-04-10T06:01:10;2;2;
54553;PMS5003;40450;55.848;-3.572;2023-04-10T06:03:41;1;1;
54553;PMS5003;40450;55.848;-3.572;2023-04-10T06:06:11;2;2;
54553;PMS5003;40450;55.848;-3.572;2023-04-10T06:08:41;3;3;
54553;PMS5003;40450;55.848;-3.572;2023-04-10T06:11:12;3;3;
54553;PMS5003;40450;55.848;-3.572;2023-04-10T06:13:42;3;3;
54553;PMS5003;40450;55.848;-3.572;2023-04-10T06:16:13;2;2;
54553;PMS5003;40450;55.848;-3.572;2023-04-10T06:18:43;2;1;
54553;PMS5003;40450;55.848;-3.572;2023-04-10T06:21:14;2;2;
54553;PMS5003;40450;55.848;-3.572;2023-04-10T06:23:44;2;2;
54553;PMS5003;40450;55.848;-3.572;2023-04-10T06:26:14;1;1;
54553;PMS5003;40450;55.848;-3.572;2023-04-10T06:28:45;1;1;
54553;PMS5003;40450;55.848;-3.572;2023-04-10T06:31:16;3;3;
54553;PMS5003;40450;55.848;-3.572;2023-04-10T06:33:46;4;4;
54553;PMS5003;40450;55.848;-3.572;2023-04-10T06:36:16;5;4;
54553;PMS5003;40450;55.848;-3.572;2023-04-10T06:38:47;2;0;
54553;PMS5003;40450;55.848;-3.572;2023-04-10T06:41:17;3;2;
54553;PMS5003;40450;55.848;-3.572;2023-04-10T06:43:48;3;3;
54553;PMS5003;40450;55.848;-3.572;2023-04-10T06:46:18;1;1;
54553;PMS5003;40450;55.848;-3.572;2023-04-10T06:48:48;1;1;
54553;PMS5003;40450;55.848;-3.572;2023-04-10T06:51:19;3;3;
54553;PMS5003;40450;55.848;-3.572;2023-04-10T06:53:49;2;2;
54553;PMS5003;40450;55.848;-3.572;2023-04-10T06:56:19;3;3;
54553;PMS5003;40450;55.848;-3.572;2023-04-10T06:58:50;2;1;
54553;PMS5003;40450;55.848;-3.572;2023-04-10T07:01:20;3;3;
54553;PMS5003;40450;55.848;-3.572;2023-04-10T07:03:52;1;0;
54553;PMS5003;40450;55.848;-3.572;2023-04-10T07:06:21;3;2;
54553;PMS5003;40450;55.848;-3.572;2023-04-10T07:08:52;3;1;
54553;PMS5003;40450;55.848;-3.572;2023-04-10T07:11:22;1;1;
54553;PMS5003;40450;55.848;-3.572;2023-04-10T07:13:52;2;0;
54553;PMS5003;40450;55.848;-3.572;2023-04-10T07:16:22;2;1;
54553;PMS5003;40450;55.848;-3.572;2023-04-10T07:18:53;1;1;
54553;PMS5003;40450;55.848;-3.572;2023-04-10T07:21:24;2;2;
54553;PMS5003;40450;55.848;-3.572;2023-04-10T07:23:54;1;1;
54553;PMS5003;40450;55.848;-3.572;2023-04-10T07:26:24;1;1;
54553;PMS5003;40450;55.848;-3.572;2023-04-10T07:28:56;1;1;
54553;PMS5003;40450;55.848;-3.572;2023-04-10T07:31:29;2;1;
54553;PMS5003;40450;55.848;-3.572;2023-04-10T07:33:56;3;2;
54553;PMS5003;40450;55.848;-3.572;2023-04-10T07:36:26;2;2;
54553;PMS5003;40450;55.848;-3.572;2023-04-10T07:38:56;2;2;
54553;PMS5003;40450;55.848;-3.572;2023-04-10T07:41:26;2;2;
54553;PMS5003;40450;55.848;-3.572;2023-04-10T07:43:57;2;2;
54553;PMS5003;40450;55.848;-3.572;2023-04-10T07:46:27;3;3;
54553;PMS5003;40450;55.848;-3.572;2023-04-10T07:48:57;2;2;
54553;PMS5003;40450;55.848;-3.572;2023-04-10T07:51:28;2;2;
54553;PMS5003;40450;55.848;-3.572;2023-04-10T07:53:58;4;1;
54553;PMS5003;40450;55.848;-3.572;2023-04-10T07:56:28;1;1;
54553;PMS5003;40450;55.848;-3.572;2023-04-10T07:58:59;3;2;
54553;PMS5003;40450;55.848;-3.572;2023-04-10T08:01:29;2;2;
54553;PMS5003;40450;55.848;-3.572;2023-04-10T08:03:59;2;2;
54553;PMS5003;40450;55.848;-3.572;2023-04-10T08:06:30;3;2;
54553;PMS5003;40450;55.848;-3.572;2023-04-10T08:09:00;2;2;
54553;PMS5003;40450;55.848;-3.572;2023-04-10T08:11:31;2;2;
54553;PMS5003;40450;55.848;-3.572;2023-04-10T08:14:02;3;1;
54553;PMS5003;40450;55.848;-3.572;2023-04-10T08:16:32;3;3;
54553;PMS5003;40450;55.848;-3.572;2023-04-10T08:19:02;5;4;
54553;PMS5003;40450;55.848;-3.572;2023-04-10T08:21:32;2;0;
54553;PMS5003;40450;55.848;-3.572;2023-04-10T08:24:03;2;2;
54553;PMS5003;40450;55.848;-3.572;2023-04-10T08:26:33;1;1;
54553;PMS5003;40450;55.848;-3.572;2023-04-10T08:29:03;1;1;
54553;PMS5003;40450;55.848;-3.572;2023-04-10T08:31:34;1;1;
54553;PMS5003;40450;55.848;-3.572;2023-04-10T08:34:05;1;1;
54553;PMS5003;40450;55.848;-3.572;2023-04-10T08:36:35;0;0;
54553;PMS5003;40450;55.848;-3.572;2023-04-10T08:39:05;1;1;
54553;PMS5003;40450;55.848;-3.572;2023-04-10T08:41:35;1;1;
54553;PMS5003;40450;55.848;-3.572;2023-04-10T08:44:06;1;0;
54553;PMS5003;40450;55.848;-3.572;2023-04-10T08:46:36;1;1;
54553;PMS5003;40450;55.848;-3.572;2023-04-10T08:49:06;4;3;
54553;PMS5003;40450;55.848;-3.572;2023-04-10T08:51:38;0;0;
54553;PMS5003;40450;55.848;-3.572;2023-04-10T08:54:10;1;1;
54553;PMS5003;40450;55.848;-3.572;2023-04-10T08:56:38;4;3;
54553;PMS5003;40450;55.848;-3.572;2023-04-10T08:59:08;4;2;
54553;PMS5003;40450;55.848;-3.572;2023-04-10T09:01:38;2;2;
54553;PMS5003;40450;55.848;-3.572;2023-04-10T09:04:09;0;0;
54553;PMS5003;40450;55.848;-3.572;2023-04-10T09:06:39;1;1;
54553;PMS5003;40450;55.848;-3.572;2023-04-10T09:09:09;1;1;
54553;PMS5003;40450;55.848;-3.572;2023-04-10T09:16:40;1;1;
54553;PMS5003;40450;55.848;-3.572;2023-04-10T09:19:11;2;2;
54553;PMS5003;40450;55.848;-3.572;2023-04-10T09:21:43;0;0;
54553;PMS5003;40450;55.848;-3.572;2023-04-10T09:24:12;0;0;
54553;PMS5003;40450;55.848;-3.572;2023-04-10T09:26:42;1;1;
54553;PMS5003;40450;55.848;-3.572;2023-04-10T09:29:12;0;0;
54553;PMS5003;40450;55.848;-3.572;2023-04-10T09:31:43;0;0;
54553;PMS5003;40450;55.848;-3.572;2023-04-10T09:34:14;0;0;
54553;PMS5003;40450;55.848;-3.572;2023-04-10T09:36:50;1;1;
54553;PMS5003;40450;55.848;-3.572;2023-04-10T09:39:14;0;0;
54553;PMS5003;40450;55.848;-3.572;2023-04-10T09:41:46;0;0;
54553;PMS5003;40450;55.848;-3.572;2023-04-10T09:44:15;1;1;
54553;PMS5003;40450;55.848;-3.572;2023-04-10T09:46:45;3;1;
54553;PMS5003;40450;55.848;-3.572;2023-04-10T09:49:15;1;1;
54553;PMS5003;40450;55.848;-3.572;2023-04-10T09:51:46;1;1;
54553;PMS5003;40450;55.848;-3.572;2023-04-10T09:54:16;2;1;
54553;PMS5003;40450;55.848;-3.572;2023-04-10T09:56:47;0;0;
54553;PMS5003;40450;55.848;-3.572;2023-04-10T09:59:17;1;1;
54553;PMS5003;40450;55.848;-3.572;2023-04-10T10:01:47;1;1;
54553;PMS5003;40450;55.848;-3.572;2023-04-10T10:04:18;1;1;
54553;PMS5003;40450;55.848;-3.572;2023-04-10T10:06:48;0;0;
54553;PMS5003;40450;55.848;-3.572;2023-04-10T10:09:18;0;0;
54553;PMS5003;40450;55.848;-3.572;2023-04-10T10:11:49;1;1;
54553;PMS5003;40450;55.848;-3.572;2023-04-10T10:14:19;0;0;
54553;PMS5003;40450;55.848;-3.572;2023-04-10T10:16:49;1;1;
54553;PMS5003;40450;55.848;-3.572;2023-04-10T10:19:20;0;0;
54553;PMS5003;40450;55.848;-3.572;2023-04-10T10:21:51;0;0;
54553;PMS5003;40450;55.848;-3.572;2023-04-10T10:24:21;0;0;
54553;PMS5003;40450;55.848;-3.572;2023-04-10T10:26:51;0;0;
54553;PMS5003;40450;55.848;-3.572;2023-04-10T10:29:22;0;0;
54553;PMS5003;40450;55.848;-3.572;2023-04-10T10:31:52;0;0;
54553;PMS5003;40450;55.848;-3.572;2023-04-10T10:34:22;0;0;
54553;PMS5003;40450;55.848;-3.572;2023-04-10T10:36:53;0;0;
54553;PMS5003;40450;55.848;-3.572;2023-04-10T10:39:27;1;0;
54553;PMS5003;40450;55.848;-3.572;2023-04-10T10:41:55;2;2;
54553;PMS5003;40450;55.848;-3.572;2023-04-10T10:44:25;0;0;
54553;PMS5003;40450;55.848;-3.572;2023-04-10T10:46:57;2;2;
54553;PMS5003;40450;55.848;-3.572;2023-04-10T10:51:55;1;1;
54553;PMS5003;40450;55.848;-3.572;2023-04-10T10:54:26;0;0;
54553;PMS5003;40450;55.848;-3.572;2023-04-10T10:56:55;0;0;
54553;PMS5003;40450;55.848;-3.572;2023-04-10T11:06:57;0;0;
54553;PMS5003;40450;55.848;-3.572;2023-04-10T11:11:58;0;0;
54553;PMS5003;40450;55.848;-3.572;2023-04-10T11:14:28;0;0;
54553;PMS5003;40450;55.848;-3.572;2023-04-10T11:16:58;1;1;
54553;PMS5003;40450;55.848;-3.572;2023-04-10T11:19:29;1;1;
54553;PMS5003;40450;55.848;-3.572;2023-04-10T11:22:00;1;1;
54553;PMS5003;40450;55.848;-3.572;2023-04-10T11:27:00;1;1;
54553;PMS5003;40450;55.848;-3.572;2023-04-10T11:29:32;0;0;
54553;PMS5003;40450;55.848;-3.572;2023-04-10T11:32:01;0;0;
54553;PMS5003;40450;55.848;-3.572;2023-04-10T11:34:32;0;0;
54553;PMS5003;40450;55.848;-3.572;2023-04-10T11:37:01;0;0;
54553;PMS5003;40450;55.848;-3.572;2023-04-10T11:39:32;0;0;
54553;PMS5003;40450;55.848;-3.572;2023-04-10T11:42:02;0;0;
54553;PMS5003;40450;55.848;-3.572;2023-04-10T11:44:33;0;0;
54553;PMS5003;40450;55.848;-3.572;2023-04-10T11:47:03;1;1;
54553;PMS5003;40450;55.848;-3.572;2023-04-10T11:49:33;0;0;
54553;PMS5003;40450;55.848;-3.572;2023-04-10T11:52:03;0;0;
54553;PMS5003;40450;55.848;-3.572;2023-04-10T11:54:34;0;0;
54553;PMS5003;40450;55.848;-3.572;2023-04-10T11:57:04;0;0;
54553;PMS5003;40450;55.848;-3.572;2023-04-10T11:59:39;0;0;
54553;PMS5003;40450;55.848;-3.572;2023-04-10T12:02:05;0;0;
54553;PMS5003;40450;55.848;-3.572;2023-04-10T12:04:35;1;1;
54553;PMS5003;40450;55.848;-3.572;2023-04-10T12:07:06;0;0;
54553;PMS5003;40450;55.848;-3.572;2023-04-10T12:09:36;0;0;
54553;PMS5003;40450;55.848;-3.572;2023-04-10T12:12:06;0;0;
54553;PMS5003;40450;55.848;-3.572;2023-04-10T12:14:37;0;0;
54553;PMS5003;40450;55.848;-3.572;2023-04-10T12:17:07;0;0;
54553;PMS5003;40450;55.848;-3.572;2023-04-10T12:19:38;0;0;
54553;PMS5003;40450;55.848;-3.572;2023-04-10T12:22:10;0;0;
54553;PMS5003;40450;55.848;-3.572;2023-04-10T12:24:40;0;0;
54553;PMS5003;40450;55.848;-3.572;2023-04-10T12:29:39;0;0;
54553;PMS5003;40450;55.848;-3.572;2023-04-10T12:32:09;0;0;
54553;PMS5003;40450;55.848;-3.572;2023-04-10T12:34:40;1;0;
54553;PMS5003;40450;55.848;-3.572;2023-04-10T12:37:10;0;0;
54553;PMS5003;40450;55.848;-3.572;2023-04-10T12:39:40;1;1;
54553;PMS5003;40450;55.848;-3.572;2023-04-10T12:42:11;0;0;
54553;PMS5003;40450;55.848;-3.572;2023-04-10T12:47:11;0;0;
54553;PMS5003;40450;55.848;-3.572;2023-04-10T12:54:43;0;0;
54553;PMS5003;40450;55.848;-3.572;2023-04-10T12:57:24;1;1;
54553;PMS5003;40450;55.848;-3.572;2023-04-10T12:59:43;0;0;
54553;PMS5003;40450;55.848;-3.572;2023-04-10T13:02:14;2;2;
54553;PMS5003;40450;55.848;-3.572;2023-04-10T13:04:44;1;1;
54553;PMS5003;40450;55.848;-3.572;2023-04-10T13:07:15;0;0;
54553;PMS5003;40450;55.848;-3.572;2023-04-10T13:09:45;1;0;
54553;PMS5003;40450;55.848;-3.572;2023-04-10T13:12:15;0;0;
54553;PMS5003;40450;55.848;-3.572;2023-04-10T13:14:45;0;0;
54553;PMS5003;40450;55.848;-3.572;2023-04-10T13:17:16;0;0;
54553;PMS5003;40450;55.848;-3.572;2023-04-10T13:19:46;0;0;
54553;PMS5003;40450;55.848;-3.572;2023-04-10T13:22:17;0;0;
54553;PMS5003;40450;55.848;-3.572;2023-04-10T13:24:47;2;0;
54553;PMS5003;40450;55.848;-3.572;2023-04-10T13:27:17;1;1;
54553;PMS5003;40450;55.848;-3.572;2023-04-10T13:29:48;0;0;
54553;PMS5003;40450;55.848;-3.572;2023-04-10T13:32:18;15;13;
54553;PMS5003;40450;55.848;-3.572;2023-04-10T13:34:48;0;0;
54553;PMS5003;40450;55.848;-3.572;2023-04-10T13:37:18;0;0;
54553;PMS5003;40450;55.848;-3.572;2023-04-10T13:39:49;1;1;
54553;PMS5003;40450;55.848;-3.572;2023-04-10T13:42:19;0;0;
54553;PMS5003;40450;55.848;-3.572;2023-04-10T13:44:50;1;1;
54553;PMS5003;40450;55.848;-3.572;2023-04-10T13:47:20;1;1;
54553;PMS5003;40450;55.848;-3.572;2023-04-10T13:49:50;0;0;
54553;PMS5003;40450;55.848;-3.572;2023-04-10T13:52:20;0;0;
54553;PMS5003;40450;55.848;-3.572;2023-04-10T13:54:51;1;1;
54553;PMS5003;40450;55.848;-3.572;2023-04-10T13:57:21;0;0;
54553;PMS5003;40450;55.848;-3.572;2023-04-10T13:59:52;1;1;
54553;PMS5003;40450;55.848;-3.572;2023-04-10T14:02:22;1;1;
54553;PMS5003;40450;55.848;-3.572;2023-04-10T14:04:52;1;1;
54553;PMS5003;40450;55.848;-3.572;2023-04-10T14:07:23;1;0;
54553;PMS5003;40450;55.848;-3.572;2023-04-10T14:09:53;1;1;
54553;PMS5003;40450;55.848;-3.572;2023-04-10T14:12:23;1;1;
54553;PMS5003;40450;55.848;-3.572;2023-04-10T14:14:54;1;1;
54553;PMS5003;40450;55.848;-3.572;2023-04-10T14:17:24;0;0;
54553;PMS5003;40450;55.848;-3.572;2023-04-10T14:19:55;0;0;
54553;PMS5003;40450;55.848;-3.572;2023-04-10T14:22:25;0;0;
54553;PMS5003;40450;55.848;-3.572;2023-04-10T14:24:55;1;1;
54553;PMS5003;40450;55.848;-3.572;2023-04-10T14:27:26;2;0;
54553;PMS5003;40450;55.848;-3.572;2023-04-10T14:29:56;1;1;
54553;PMS5003;40450;55.848;-3.572;2023-04-10T14:32:26;0;0;
54553;PMS5003;40450;55.848;-3.572;2023-04-10T14:34:57;0;0;
54553;PMS5003;40450;55.848;-3.572;2023-04-10T14:37:27;1;1;
54553;PMS5003;40450;55.848;-3.572;2023-04-10T14:39:58;1;1;
54553;PMS5003;40450;55.848;-3.572;2023-04-10T14:42:28;0;0;
54553;PMS5003;40450;55.848;-3.572;2023-04-10T14:44:58;0;0;
54553;PMS5003;40450;55.848;-3.572;2023-04-10T14:47:29;1;0;
54553;PMS5003;40450;55.848;-3.572;2023-04-10T14:50:05;0;0;
54553;PMS5003;40450;55.848;-3.572;2023-04-10T14:52:30;0;0;
54553;PMS5003;40450;55.848;-3.572;2023-04-10T14:55:00;0;0;
54553;PMS5003;40450;55.848;-3.572;2023-04-10T14:57:30;1;1;
54553;PMS5003;40450;55.848;-3.572;2023-04-10T15:00:01;0;0;
54553;PMS5003;40450;55.848;-3.572;2023-04-10T15:02:31;0;0;
54553;PMS5003;40450;55.848;-3.572;2023-04-10T15:05:01;0;0;
54553;PMS5003;40450;55.848;-3.572;2023-04-10T15:07:32;1;0;
54553;PMS5003;40450;55.848;-3.572;2023-04-10T15:10:02;0;0;
54553;PMS5003;40450;55.848;-3.572;2023-04-10T15:12:32;0;0;
54553;PMS5003;40450;55.848;-3.572;2023-04-10T15:15:03;0;0;
54553;PMS5003;40450;55.848;-3.572;2023-04-10T15:17:33;1;1;
54553;PMS5003;40450;55.848;-3.572;2023-04-10T15:20:05;2;2;
54553;PMS5003;40450;55.848;-3.572;2023-04-10T15:22:35;5;5;
54553;PMS5003;40450;55.848;-3.572;2023-04-10T15:25:05;0;0;
54553;PMS5003;40450;55.848;-3.572;2023-04-10T15:27:35;0;0;
54553;PMS5003;40450;55.848;-3.572;2023-04-10T15:30:06;0;0;
54553;PMS5003;40450;55.848;-3.572;2023-04-10T15:32:36;0;0;
54553;PMS5003;40450;55.848;-3.572;2023-04-10T15:35:06;0;0;
54553;PMS5003;40450;55.848;-3.572;2023-04-10T15:37:36;0;0;
54553;PMS5003;40450;55.848;-3.572;2023-04-10T15:40:07;0;0;
54553;PMS5003;40450;55.848;-3.572;2023-04-10T15:42:37;2;0;
54553;PMS5003;40450;55.848;-3.572;2023-04-10T15:45:07;0;0;
54553;PMS5003;40450;55.848;-3.572;2023-04-10T15:47:38;1;1;
54553;PMS5003;40450;55.848;-3.572;2023-04-10T15:50:08;1;1;
54553;PMS5003;40450;55.848;-3.572;2023-04-10T15:52:39;0;0;
54553;PMS5003;40450;55.848;-3.572;2023-04-10T15:55:09;1;1;
54553;PMS5003;40450;55.848;-3.572;2023-04-10T15:57:39;1;1;
54553;PMS5003;40450;55.848;-3.572;2023-04-10T16:00:10;0;0;
54553;PMS5003;40450;55.848;-3.572;2023-04-10T16:02:40;0;0;
54553;PMS5003;40450;55.848;-3.572;2023-04-10T16:05:10;0;0;
54553;PMS5003;40450;55.848;-3.572;2023-04-10T16:07:40;1;1;
54553;PMS5003;40450;55.848;-3.572;2023-04-10T16:10:11;3;2;
54553;PMS5003;40450;55.848;-3.572;2023-04-10T16:12:41;2;2;
54553;PMS5003;40450;55.848;-3.572;2023-04-10T16:15:12;1;1;
54553;PMS5003;40450;55.848;-3.572;2023-04-10T16:17:47;0;0;
54553;PMS5003;40450;55.848;-3.572;2023-04-10T16:20:12;3;2;
54553;PMS5003;40450;55.848;-3.572;2023-04-10T16:22:42;1;1;
54553;PMS5003;40450;55.848;-3.572;2023-04-10T16:25:13;3;3;
54553;PMS5003;40450;55.848;-3.572;2023-04-10T16:27:43;2;2;
54553;PMS5003;40450;55.848;-3.572;2023-04-10T16:30:13;0;0;
54553;PMS5003;40450;55.848;-3.572;2023-04-10T16:32:44;1;1;
54553;PMS5003;40450;55.848;-3.572;2023-04-10T16:35:15;0;0;
54553;PMS5003;40450;55.848;-3.572;2023-04-10T16:37:48;0;0;
54553;PMS5003;40450;55.848;-3.572;2023-04-10T16:40:16;0;0;
54553;PMS5003;40450;55.848;-3.572;2023-04-10T16:42:45;1;0;
54553;PMS5003;40450;55.848;-3.572;2023-04-10T16:45:16;0;0;
54553;PMS5003;40450;55.848;-3.572;2023-04-10T16:47:46;0;0;
54553;PMS5003;40450;55.848;-3.572;2023-04-10T16:50:17;0;0;
54553;PMS5003;40450;55.848;-3.572;2023-04-10T16:52:47;1;0;
54553;PMS5003;40450;55.848;-3.572;2023-04-10T16:55:17;0;0;
54553;PMS5003;40450;55.848;-3.572;2023-04-10T16:57:47;1;1;
54553;PMS5003;40450;55.848;-3.572;2023-04-10T17:00:18;1;1;
54553;PMS5003;40450;55.848;-3.572;2023-04-10T17:02:48;0;0;
54553;PMS5003;40450;55.848;-3.572;2023-04-10T17:05:18;0;0;
54553;PMS5003;40450;55.848;-3.572;2023-04-10T17:07:49;1;1;
54553;PMS5003;40450;55.848;-3.572;2023-04-10T17:10:19;2;0;
54553;PMS5003;40450;55.848;-3.572;2023-04-10T17:12:50;2;1;
54553;PMS5003;40450;55.848;-3.572;2023-04-10T17:15:20;0;0;
54553;PMS5003;40450;55.848;-3.572;2023-04-10T17:17:50;0;0;
54553;PMS5003;40450;55.848;-3.572;2023-04-10T17:20:21;0;0;
54553;PMS5003;40450;55.848;-3.572;2023-04-10T17:22:51;0;0;
54553;PMS5003;40450;55.848;-3.572;2023-04-10T17:25:21;0;0;
54553;PMS5003;40450;55.848;-3.572;2023-04-10T17:27:52;0;0;